Time;durP1;ratioP1;P1;durP2;ratioP2;P2;SDS_P1;SDS_P2;PMS_P1;PMS_P2;Temp;Humidity;BMP_temperature;BMP_pressure;BME280_temperature;BME280_humidity;BME280_pressure;Samples;Min_cycle;Max_cycle;Signal;HPM_P1;HPM_P2
2021/10/25 00:00:01;;;;;;;;;;;;;;;9.18;65.68;99962.16;5048770;28;19917;-75
2021/10/25 00:02:26;;;;;;;;;;;;;;;9.19;65.54;99965.63;5052784;28;19955;-73
2021/10/25 00:04:52;;;;;;;;;;;;;;;9.15;65.21;99962.25;5051680;28;19952;-74
2021/10/25 00:07:17;;;;;;;;;;;;;;;9.16;65.64;99963.13;5034868;28;19963;-73
2021/10/25 00:09:42;;;;;;;;;;;;;;;9.16;65.40;99966.59;5034060;28;19925;-73
2021/10/25 00:12:07;;;;;;;;;;;;;;;9.18;65.68;99967.41;5052537;28;19921;-72
2021/10/25 00:14:33;;;;;;;;;;;;;;;9.19;65.34;99969.09;5034209;28;20066;-73
2021/10/25 00:16:58;;;;;;;;;;;;;;;9.18;66.14;99956.00;5034412;28;20387;-73
2021/10/25 00:19:24;;;;;;;;;;;;;;;9.20;65.53;99964.69;5052288;28;20003;-72
2021/10/25 00:21:49;;;;;;;;;;;;;;;9.20;65.28;99952.38;5051559;28;19951;-74
2021/10/25 00:24:15;;;;;;;;;;;;;;;9.21;65.86;99961.16;5051613;28;19924;-74
2021/10/25 00:26:40;;;;;;;;;;;;;;;9.18;65.85;99959.50;5052334;28;20414;-74
2021/10/25 00:29:05;;;;;;;;;;;;;;;9.20;65.50;99959.44;5053015;28;19970;-73
2021/10/25 00:31:30;;;;;;;;;;;;;;;9.18;65.52;99962.16;5034683;28;19924;-74
2021/10/25 00:33:56;;;;;;;;;;;;;;;9.17;65.77;99965.69;5035208;28;19928;-72
2021/10/25 00:36:22;;;;;;;;;;;;;;;9.15;66.23;99966.66;5052443;28;19920;-73
2021/10/25 00:38:47;;;;;;;;;;;;;;;9.14;65.65;99963.19;5052235;28;19924;-72
2021/10/25 00:41:12;;;;;;;;;;;;;;;9.13;66.40;99964.09;5051458;28;19999;-73
2021/10/25 00:43:38;;;;;;;;;;;;;;;9.15;66.06;99966.66;5052466;28;20455;-74
2021/10/25 00:46:06;;;;;;;;;;;;;;;9.11;65.91;99965.94;5052401;28;19923;-74
2021/10/25 00:48:31;;;;;;;;;;;;;;;9.08;66.03;99966.06;5052376;28;19971;-74
2021/10/25 00:50:57;;;;;;;;;;;;;;;9.08;66.17;99971.34;5051655;28;19924;-73
2021/10/25 00:53:22;;;;;;;;;;;;;;;9.08;66.72;99967.81;5052097;28;19921;-74
2021/10/25 00:55:47;;;;;;;;;;;;;;;9.07;66.34;99966.97;5052000;28;19917;-73
2021/10/25 00:58:13;;;;;;;;;;;;;;;9.08;66.33;99970.44;5053085;28;19923;-74
2021/10/25 01:00:38;;;;;;;;;;;;;;;9.06;66.41;99967.00;5027184;28;19917;-73
2021/10/25 01:03:04;;;;;;;;;;;;;;;9.06;66.96;99969.66;5050989;28;19924;-73
2021/10/25 01:05:30;;;;;;;;;;;;;;;9.05;66.67;99962.69;5051449;28;19940;-73
2021/10/25 01:07:56;;;;;;;;;;;;;;;9.05;66.38;99960.91;5051647;28;19951;-72
2021/10/25 01:10:22;;;;;;;;;;;;;;;9.06;66.35;99967.00;5051509;28;19957;-72
2021/10/25 01:12:48;;;;;;;;;;;;;;;9.07;66.94;99958.22;5032440;28;19955;-72
2021/10/25 01:15:13;;;;;;;;;;;;;;;9.09;67.21;99959.03;5051497;28;19921;-73
2021/10/25 01:17:39;;;;;;;;;;;;;;;9.11;66.91;99959.81;5051381;28;19917;-73
2021/10/25 01:20:04;;;;;;;;;;;;;;;9.12;66.88;99957.13;5051161;28;20288;-74
2021/10/25 01:22:30;;;;;;;;;;;;;;;9.14;66.99;99949.19;5051139;28;20296;-73
2021/10/25 01:24:55;;;;;;;;;;;;;;;9.14;66.77;99943.91;5057757;28;20058;-72
2021/10/25 01:27:21;;;;;;;;;;;;;;;9.15;66.79;99943.84;5071655;28;19923;-73
2021/10/25 01:29:46;;;;;;;;;;;;;;;9.16;66.77;99948.19;5052841;28;19931;-74
2021/10/25 01:32:12;;;;;;;;;;;;;;;9.20;66.53;99946.28;5070361;28;19928;-73
2021/10/25 01:34:37;;;;;;;;;;;;;;;9.21;66.22;99943.59;5071195;28;19916;-73
2021/10/25 01:37:03;;;;;;;;;;;;;;;9.23;66.93;99940.91;5070941;28;19926;-73
2021/10/25 01:39:29;;;;;;;;;;;;;;;9.26;66.84;99942.56;5071000;28;19974;-74
2021/10/25 01:41:55;;;;;;;;;;;;;;;9.27;66.38;99939.00;5069499;28;19917;-74
2021/10/25 01:44:20;;;;;;;;;;;;;;;9.28;67.16;99940.69;5053226;28;19924;-73
2021/10/25 01:46:46;;;;;;;;;;;;;;;9.28;66.69;99945.97;5070178;28;19920;-74
2021/10/25 01:49:11;;;;;;;;;;;;;;;9.29;66.91;99935.38;5070388;28;19925;-74
2021/10/25 01:51:36;;;;;;;;;;;;;;;9.30;66.93;99936.25;5069715;28;19927;-74
2021/10/25 01:54:02;;;;;;;;;;;;;;;9.30;66.92;99930.97;5070797;28;20012;-74
2021/10/25 01:56:29;;;;;;;;;;;;;;;9.28;66.90;99932.81;5070929;28;19951;-73
2021/10/25 01:58:54;;;;;;;;;;;;;;;9.26;66.79;99929.41;5053020;28;19916;-74
2021/10/25 02:01:21;;;;;;;;;;;;;;;9.25;67.09;99920.63;5070543;28;20000;-74
2021/10/25 02:03:46;;;;;;;;;;;;;;;9.26;66.54;99921.53;5052742;28;19920;-73
2021/10/25 02:06:12;;;;;;;;;;;;;;;9.24;66.65;99914.53;5070441;28;19928;-73
2021/10/25 02:08:37;;;;;;;;;;;;;;;9.26;67.22;99911.84;5070572;28;20407;-73
2021/10/25 02:11:02;;;;;;;;;;;;;;;9.26;67.06;99918.88;5035415;28;19921;-73
2021/10/25 02:13:27;;;;;;;;;;;;;;;9.26;67.27;99917.09;5073062;28;19916;-73
2021/10/25 02:15:54;;;;;;;;;;;;;;;9.28;66.98;99914.41;5055293;28;19965;-73
2021/10/25 02:18:20;;;;;;;;;;;;;;;9.24;66.73;99909.25;5072602;28;20433;-74
2021/10/25 02:20:45;;;;;;;;;;;;;;;9.24;67.14;99911.91;5069416;28;19917;-73
2021/10/25 02:23:10;;;;;;;;;;;;;;;9.27;67.01;99900.38;5069932;28;20625;-73
2021/10/25 02:25:36;;;;;;;;;;;;;;;9.28;66.52;99906.50;5070169;28;19916;-73
2021/10/25 02:28:02;;;;;;;;;;;;;;;9.30;67.18;99902.03;5052262;28;20303;-72
2021/10/25 02:30:27;;;;;;;;;;;;;;;9.30;66.85;99902.03;5068725;28;20388;-73
2021/10/25 02:32:53;;;;;;;;;;;;;;;9.29;66.59;99905.59;5051432;28;19923;-71
2021/10/25 02:35:18;;;;;;;;;;;;;;;9.28;67.20;99898.59;5070274;28;20037;-73
2021/10/25 02:37:44;;;;;;;;;;;;;;;9.29;66.52;99900.34;5069980;28;19922;-72
2021/10/25 02:40:09;;;;;;;;;;;;;;;9.27;66.52;99894.28;5069577;28;20289;-71
2021/10/25 02:42:35;;;;;;;;;;;;;;;9.26;66.86;99901.31;5069306;28;19917;-72
2021/10/25 02:45:00;;;;;;;;;;;;;;;9.24;67.04;99898.75;5070765;28;19921;-73
2021/10/25 02:47:25;;;;;;;;;;;;;;;9.21;66.67;99901.50;5054308;28;19917;-72
2021/10/25 02:49:50;;;;;;;;;;;;;;;9.19;66.54;99900.72;5070743;28;19927;-73
2021/10/25 02:52:16;;;;;;;;;;;;;;;9.18;66.52;99895.50;5069516;28;19917;-72
2021/10/25 02:54:41;;;;;;;;;;;;;;;9.16;67.12;99895.59;5051608;28;19962;-71
2021/10/25 02:57:06;;;;;;;;;;;;;;;9.16;66.79;99889.47;5051550;28;20411;-72
2021/10/25 02:59:32;;;;;;;;;;;;;;;9.16;67.16;99889.47;5069490;28;19962;-73
2021/10/25 03:01:57;;;;;;;;;;;;;;;9.14;66.91;99892.16;5068463;28;19924;-73
2021/10/25 03:04:22;;;;;;;;;;;;;;;9.15;67.19;99891.22;5035056;28;20013;-73
2021/10/25 03:06:48;;;;;;;;;;;;;;;9.14;66.67;99897.41;5068764;28;20428;-73
2021/10/25 03:09:13;;;;;;;;;;;;;;;9.15;67.18;99893.00;5051463;28;19934;-73
2021/10/25 03:11:38;;;;;;;;;;;;;;;9.12;66.52;99898.41;5067045;28;19916;-73
2021/10/25 03:14:04;;;;;;;;;;;;;;;9.10;66.54;99887.09;5071047;28;19999;-72
2021/10/25 03:16:29;;;;;;;;;;;;;;;9.07;66.64;99895.97;5076088;28;19916;-73
2021/10/25 03:18:55;;;;;;;;;;;;;;;9.05;67.23;99895.16;5052263;28;19917;-73
2021/10/25 03:21:21;;;;;;;;;;;;;;;9.00;67.63;99892.72;5052404;28;20303;-73
2021/10/25 03:23:48;;;;;;;;;;;;;;;9.02;67.48;99888.25;5074118;28;19958;-73
2021/10/25 03:26:14;;;;;;;;;;;;;;;9.01;67.23;99888.34;5062402;28;19983;-73
2021/10/25 03:28:39;;;;;;;;;;;;;;;8.97;67.83;99884.97;5082398;28;20279;-73
2021/10/25 03:31:05;;;;;;;;;;;;;;;8.85;67.98;99885.47;5082625;28;19927;-73
2021/10/25 03:33:33;;;;;;;;;;;;;;;8.80;68.02;99890.06;5080916;28;19920;-74
2021/10/25 03:35:59;;;;;;;;;;;;;;;8.74;68.34;99885.06;5053303;28;19971;-73
2021/10/25 03:38:24;;;;;;;;;;;;;;;8.67;68.34;99887.06;5049255;28;19960;-72
2021/10/25 03:40:52;;;;;;;;;;;;;;;8.54;68.76;99880.56;5049034;28;19924;-73
2021/10/25 03:43:19;;;;;;;;;;;;;;;8.48;68.79;99878.19;5048655;28;19936;-73
2021/10/25 03:46:05;;;;;;;;;;;;;;;8.38;69.24;99873.25;5047722;28;19923;-73
2021/10/25 03:48:36;;;;;;;;;;;;;;;8.36;69.82;99877.72;5048508;28;19921;-72
2021/10/25 03:51:01;;;;;;;;;;;;;;;8.36;69.49;99871.59;5046157;28;20407;-72
2021/10/25 03:53:38;;;;;;;;;;;;;;;8.41;69.01;99872.31;5029774;28;19921;-73
2021/10/25 04:02:02;;;;;;;;;;;;;;;8.38;69.55;99864.53;5049389;28;20054;-74
2021/10/25 04:28:29;;;;;;;;;;;;;;;7.88;70.93;99856.81;5051763;28;19944;-74
2021/10/25 04:31:00;;;;;;;;;;;;;;;7.85;70.50;99852.53;5066187;28;20382;-71
2021/10/25 04:33:25;;;;;;;;;;;;;;;7.82;71.00;99849.16;5048879;28;20065;-72
2021/10/25 04:35:51;;;;;;;;;;;;;;;7.83;71.23;99851.72;5069584;28;20011;-73
2021/10/25 04:38:16;;;;;;;;;;;;;;;7.84;70.95;99853.44;5050797;28;20352;-72
2021/10/25 04:40:41;;;;;;;;;;;;;;;7.82;70.96;99851.78;5068102;28;19960;-74
2021/10/25 04:43:10;;;;;;;;;;;;;;;7.84;70.94;99858.69;5068966;28;19921;-72
2021/10/25 04:45:35;;;;;;;;;;;;;;;7.87;70.36;99862.97;5050758;28;19916;-72
2021/10/25 04:48:01;;;;;;;;;;;;;;;7.87;70.37;99855.94;5070808;28;20372;-73
2021/10/25 04:50:26;;;;;;;;;;;;;;;7.85;70.57;99849.91;5057648;28;19920;-72
2021/10/25 04:52:51;;;;;;;;;;;;;;;7.78;71.03;99852.78;5077166;28;19916;-73
2021/10/25 04:55:16;;;;;;;;;;;;;;;7.77;70.91;99851.94;5079187;28;19920;-73
2021/10/25 04:57:42;;;;;;;;;;;;;;;7.80;70.68;99856.22;5079552;28;19980;-73
2021/10/25 05:00:08;;;;;;;;;;;;;;;7.78;71.17;99858.91;5079665;28;19950;-74
2021/10/25 05:02:33;;;;;;;;;;;;;;;7.76;70.74;99855.50;5060524;28;19916;-74
2021/10/25 05:04:58;;;;;;;;;;;;;;;7.73;70.68;99856.47;5082566;28;19935;-74
2021/10/25 05:07:24;;;;;;;;;;;;;;;7.72;71.39;99862.59;5078639;28;19917;-73
2021/10/25 05:09:49;;;;;;;;;;;;;;;7.74;70.63;99859.94;5081364;28;19924;-73
2021/10/25 05:12:14;;;;;;;;;;;;;;;7.77;70.70;99861.59;5081463;28;19916;-73
2021/10/25 05:14:41;;;;;;;;;;;;;;;7.78;70.14;99858.91;5054142;28;19920;-75
2021/10/25 05:17:07;;;;;;;;;;;;;;;7.75;70.50;99859.00;5072224;28;19922;-72
2021/10/25 05:19:32;;;;;;;;;;;;;;;7.76;70.73;99858.13;5071490;28;19944;-73
2021/10/25 05:21:57;;;;;;;;;;;;;;;7.78;70.89;99850.16;5070996;28;19917;-73
2021/10/25 05:24:23;;;;;;;;;;;;;;;7.78;70.11;99847.53;5056979;28;20424;-73
2021/10/25 05:26:48;;;;;;;;;;;;;;;7.79;70.50;99849.28;5055103;28;20362;-72
2021/10/25 05:29:13;;;;;;;;;;;;;;;7.80;70.39;99840.47;5071162;28;19932;-73
2021/10/25 05:31:38;;;;;;;;;;;;;;;7.82;70.37;99844.75;5034565;28;19920;-73
2021/10/25 05:34:04;;;;;;;;;;;;;;;7.81;70.25;99843.06;5033368;28;19932;-73
2021/10/25 05:36:29;;;;;;;;;;;;;;;7.82;70.21;99850.00;5051306;28;19921;-72
2021/10/25 05:38:54;;;;;;;;;;;;;;;7.82;70.59;99841.28;5051978;28;20371;-73
2021/10/25 05:41:19;;;;;;;;;;;;;;;7.82;70.73;99844.75;5050406;28;19916;-72
2021/10/25 05:43:45;;;;;;;;;;;;;;;7.84;70.10;99847.34;5052826;28;19917;-73
2021/10/25 05:46:10;;;;;;;;;;;;;;;7.82;70.14;99855.25;5068666;28;19920;-74
2021/10/25 05:48:38;;;;;;;;;;;;;;;7.80;70.25;99849.22;5037318;28;19936;-75
2021/10/25 05:51:03;;;;;;;;;;;;;;;7.80;70.62;99845.72;5053360;28;20299;-74
2021/10/25 05:53:28;;;;;;;;;;;;;;;7.78;70.83;99843.19;5073085;28;20019;-73
2021/10/25 05:55:54;;;;;;;;;;;;;;;7.77;70.85;99841.44;5053719;28;19995;-74
2021/10/25 05:58:21;;;;;;;;;;;;;;;7.77;70.59;99840.59;5070167;28;19956;-74
2021/10/25 06:00:54;;;;;;;;;;;;;;;7.77;70.71;99844.06;5069905;28;20388;-72
2021/10/25 06:03:23;;;;;;;;;;;;;;;7.77;70.82;99838.81;5052125;28;19956;-72
2021/10/25 06:05:48;;;;;;;;;;;;;;;7.78;70.96;99845.81;5070655;28;19924;-74
2021/10/25 06:08:14;;;;;;;;;;;;;;;7.78;70.59;99842.28;5070434;28;20031;-72
2021/10/25 06:10:40;;;;;;;;;;;;;;;7.75;71.23;99843.25;5069289;28;20384;-75
2021/10/25 06:13:05;;;;;;;;;;;;;;;7.73;70.94;99842.50;5070905;28;20003;-73
2021/10/25 06:15:38;;;;;;;;;;;;;;;7.71;70.95;99837.28;5071476;28;19976;-73
2021/10/25 06:18:07;;;;;;;;;;;;;;;7.70;70.98;99832.09;5069967;28;19920;-72
2021/10/25 06:20:33;;;;;;;;;;;;;;;7.69;71.12;99831.22;5069639;28;20395;-73
2021/10/25 06:22:58;;;;;;;;;;;;;;;7.69;71.03;99827.75;5070201;28;19921;-72
2021/10/25 06:25:23;;;;;;;;;;;;;;;7.65;70.76;99820.91;5070954;28;19920;-74
2021/10/25 06:27:49;;;;;;;;;;;;;;;7.64;70.97;99830.56;5052403;28;19974;-72
2021/10/25 06:30:15;;;;;;;;;;;;;;;7.60;70.63;99822.84;5069466;28;19974;-74
2021/10/25 06:32:40;;;;;;;;;;;;;;;7.53;71.24;99820.44;5052173;28;19920;-72
2021/10/25 06:35:08;;;;;;;;;;;;;;;7.49;71.34;99825.88;5069482;28;19917;-72
2021/10/25 06:37:49;;;;;;;;;;;;;;;7.46;71.43;99825.97;5069722;28;19920;-73
2021/10/25 06:40:16;;;;;;;;;;;;;;;7.43;71.63;99820.81;5068974;28;19927;-73
2021/10/25 06:42:41;;;;;;;;;;;;;;;7.37;71.57;99829.78;5069322;28;19939;-73
2021/10/25 06:45:10;;;;;;;;;;;;;;;7.28;71.73;99830.09;5069357;28;19916;-73
2021/10/25 06:47:35;;;;;;;;;;;;;;;7.29;71.84;99830.03;5069380;28;20380;-74
2021/10/25 06:50:00;;;;;;;;;;;;;;;7.35;71.47;99830.75;5068978;28;19963;-73
2021/10/25 06:52:26;;;;;;;;;;;;;;;7.46;71.14;99833.84;5070048;28;20291;-74
2021/10/25 06:54:51;;;;;;;;;;;;;;;7.59;69.77;99823.75;5068416;28;20011;-73
2021/10/25 06:57:16;;;;;;;;;;;;;;;7.67;69.76;99832.19;5068613;28;19951;-73
2021/10/25 06:59:42;;;;;;;;;;;;;;;7.80;69.36;99822.97;5068507;28;19920;-73
2021/10/25 07:02:07;;;;;;;;;;;;;;;7.93;68.19;99829.47;5066254;28;20296;-74
2021/10/25 07:04:32;;;;;;;;;;;;;;;8.07;67.61;99826.34;5068266;28;19931;-74
2021/10/25 07:06:58;;;;;;;;;;;;;;;8.19;67.35;99832.84;5068649;28;19916;-74
2021/10/25 07:09:23;;;;;;;;;;;;;;;8.34;66.53;99832.28;5068580;28;19928;-73
2021/10/25 07:11:49;;;;;;;;;;;;;;;8.49;66.31;99833.47;5070059;28;19916;-73
2021/10/25 07:14:16;;;;;;;;;;;;;;;8.63;65.96;99832.91;5069815;28;20348;-74
2021/10/25 07:16:52;;;;;;;;;;;;;;;8.77;65.05;99833.22;5068081;28;20092;-74
2021/10/25 08:07:37;;;;;;;;;;;;;;;11.00;58.40;99853.88;5060358;28;20012;-75
2021/10/25 08:10:09;;;;;;;;;;;;;;;11.10;58.10;99855.13;5063328;28;19925;-75
2021/10/25 08:12:36;;;;;;;;;;;;;;;11.19;57.93;99852.03;5064523;28;20584;-75
2021/10/25 08:15:05;;;;;;;;;;;;;;;11.31;57.73;99859.31;5045892;28;20574;-75
2021/10/25 08:18:07;;;;;;;;;;;;;;;11.41;57.32;99846.50;5064006;28;20007;-75
2021/10/25 08:20:22;;;;;;;;;;;;;;;11.50;56.94;99842.53;5059299;28;19924;-76
2021/10/25 08:22:47;;;;;;;;;;;;;;;11.61;56.71;99846.31;5065825;28;20412;-75
2021/10/25 08:25:13;;;;;;;;;;;;;;;11.73;56.61;99839.53;5032097;28;19927;-75
2021/10/25 08:27:40;;;;;;;;;;;;;;;11.90;57.05;99843.09;5070651;28;20367;-75
2021/10/25 08:30:06;;;;;;;;;;;;;;;12.13;56.25;99831.25;5048864;28;19932;-75
2021/10/25 08:39:59;;;;;;;;;;;;;;;12.83;54.88;99839.69;5066715;28;20015;-75
2021/10/25 08:42:27;;;;;;;;;;;;;;;13.00;54.57;99836.06;5047652;28;19924;-75
2021/10/25 08:44:58;;;;;;;;;;;;;;;13.09;53.33;99828.44;5048167;28;19931;-73
2021/10/25 08:47:27;;;;;;;;;;;;;;;13.23;53.50;99834.69;5061137;28;20011;-75
2021/10/25 08:49:55;;;;;;;;;;;;;;;13.39;54.06;99824.94;5046537;28;19936;-74
2021/10/25 08:52:21;;;;;;;;;;;;;;;13.47;54.25;99838.56;5047940;28;20004;-75
2021/10/25 08:54:51;;;;;;;;;;;;;;;13.48;52.93;99832.31;5025725;28;20437;-75
2021/10/25 08:57:17;;;;;;;;;;;;;;;13.56;53.01;99834.50;5030304;28;19921;-76
2021/10/25 08:59:54;;;;;;;;;;;;;;;13.71;52.95;99832.72;5029316;28;19925;-76
2021/10/25 09:02:20;;;;;;;;;;;;;;;14.85;49.65;99829.00;5046831;28;19921;-76
2021/10/25 09:04:55;;;;;;;;;;;;;;;15.12;48.18;99828.13;5059894;28;20359;-73
2021/10/25 09:07:20;;;;;;;;;;;;;;;16.29;45.61;99826.16;5065951;28;19943;-76
2021/10/25 09:09:45;;;;;;;;;;;;;;;16.74;44.43;99827.28;5045110;28;20408;-76
2021/10/25 09:12:14;;;;;;;;;;;;;;;17.85;41.96;99823.38;5027881;28;20137;-75
2021/10/25 09:14:39;;;;;;;;;;;;;;;18.26;41.11;99824.53;5050775;28;20007;-77
2021/10/25 09:17:06;;;;;;;;;;;;;;;18.81;39.86;99818.25;5065976;28;20053;-73
2021/10/25 09:19:36;;;;;;;;;;;;;;;18.76;40.07;99822.28;5066037;28;19924;-75
2021/10/25 09:22:13;;;;;;;;;;;;;;;19.28;38.87;99816.06;5031187;28;19920;-73
2021/10/25 09:24:41;;;;;;;;;;;;;;;19.87;37.99;99817.25;5054818;28;20014;-73
2021/10/25 09:27:08;;;;;;;;;;;;;;;19.29;38.41;99819.56;5064569;28;19928;-76
2021/10/25 09:29:35;;;;;;;;;;;;;;;19.12;39.16;99812.97;5047676;28;19932;-75
2021/10/25 09:32:09;;;;;;;;;;;;;;;19.77;37.83;99816.38;5043097;28;20003;-74
2021/10/25 09:34:57;;;;;;;;;;;;;;;19.83;37.65;99815.81;5063948;28;19921;-73
2021/10/25 09:37:25;;;;;;;;;;;;;;;20.03;36.91;99814.06;5064090;28;19936;-75
2021/10/25 09:39:57;;;;;;;;;;;;;;;20.09;37.11;99820.72;5047020;28;19924;-75
2021/10/25 09:50:20;;;;;;;;;;;;;;;20.24;36.78;99819.34;5057194;28;19981;-74
2021/10/25 09:52:47;;;;;;;;;;;;;;;20.76;35.74;99812.00;5060956;28;19978;-75
2021/10/25 09:55:13;;;;;;;;;;;;;;;21.34;34.75;99810.25;5046452;28;19920;-77
2021/10/25 10:00:07;;;;;;;;;;;;;;;22.27;33.10;99803.19;5064446;28;20411;-74
2021/10/25 10:02:34;;;;;;;;;;;;;;;22.29;33.02;99806.56;5050284;28;19927;-75
2021/10/25 10:05:00;;;;;;;;;;;;;;;22.28;32.64;99804.91;5060660;28;19985;-73
2021/10/25 10:07:28;;;;;;;;;;;;;;;21.99;33.24;99810.38;5043425;28;19917;-74
2021/10/25 10:09:54;;;;;;;;;;;;;;;21.61;33.09;99807.69;5052253;28;19929;-74
2021/10/25 10:12:20;;;;;;;;;;;;;;;21.49;33.55;99806.19;5069300;28;19939;-75
2021/10/25 10:14:46;;;;;;;;;;;;;;;21.41;33.70;99814.97;5069763;28;19917;-75
2021/10/25 10:17:16;;;;;;;;;;;;;;;21.17;34.42;99804.66;5070181;28;19931;-73
2021/10/25 10:19:42;;;;;;;;;;;;;;;20.89;34.94;99803.66;5069918;28;19975;-74
2021/10/25 10:22:08;;;;;;;;;;;;;;;20.46;35.80;99801.38;5069201;28;20394;-74
2021/10/25 10:24:35;;;;;;;;;;;;;;;19.92;36.87;99798.13;5070477;28;19927;-74
2021/10/25 10:27:06;;;;;;;;;;;;;;;19.52;37.97;99797.06;5068561;28;19917;-75
2021/10/25 10:29:35;;;;;;;;;;;;;;;19.24;38.55;99803.09;5052227;28;20006;-74
2021/10/25 10:32:02;;;;;;;;;;;;;;;18.64;39.35;99805.41;5069077;28;19923;-74
2021/10/25 10:34:37;;;;;;;;;;;;;;;18.20;40.30;99805.38;5069776;28;19966;-74
2021/10/25 10:37:02;;;;;;;;;;;;;;;17.72;40.98;99807.44;5069560;28;19916;-74
2021/10/25 10:39:28;;;;;;;;;;;;;;;17.43;41.91;99809.72;5069762;28;19923;-75
2021/10/25 10:41:57;;;;;;;;;;;;;;;17.09;43.17;99809.63;5068226;28;20011;-75
2021/10/25 10:44:26;;;;;;;;;;;;;;;16.72;43.64;99809.72;5069621;28;19916;-74
2021/10/25 10:46:57;;;;;;;;;;;;;;;16.42;44.61;99820.81;5069737;28;19943;-75
2021/10/25 10:49:23;;;;;;;;;;;;;;;16.23;45.16;99813.31;5069929;28;19936;-74
2021/10/25 10:52:06;;;;;;;;;;;;;;;16.10;45.32;99816.84;5068625;28;19916;-74
2021/10/25 10:54:39;;;;;;;;;;;;;;;16.13;46.38;99812.28;5069450;28;19924;-74
2021/10/25 10:57:20;;;;;;;;;;;;;;;16.10;46.52;99808.03;5051844;28;19924;-74
2021/10/25 10:59:50;;;;;;;;;;;;;;;16.12;46.68;99819.41;5069940;28;20440;-74
2021/10/25 11:02:19;;;;;;;;;;;;;;;16.44;45.93;99816.19;5069779;28;19951;-75
2021/10/25 11:04:44;;;;;;;;;;;;;;;16.51;46.11;99812.13;5052063;28;19921;-73
2021/10/25 11:07:10;;;;;;;;;;;;;;;16.59;46.04;99806.25;5050984;28;20011;-75
2021/10/25 11:09:35;;;;;;;;;;;;;;;16.61;45.58;99807.81;5070756;28;19944;-75
2021/10/25 11:12:01;;;;;;;;;;;;;;;16.57;45.93;99811.69;5060355;28;19988;-74
2021/10/25 11:14:29;;;;;;;;;;;;;;;16.46;46.48;99808.97;5050329;28;19917;-74
2021/10/25 11:17:14;;;;;;;;;;;;;;;16.32;46.65;99812.66;5032026;28;19935;-74
2021/10/25 11:19:46;;;;;;;;;;;;;;;16.12;47.17;99806.13;5038331;28;19935;-75
2021/10/25 11:22:12;;;;;;;;;;;;;;;16.07;47.37;99809.09;5061488;28;19916;-73
2021/10/25 11:24:37;;;;;;;;;;;;;;;16.04;47.71;99811.13;5053972;28;19939;-75
2021/10/25 11:27:02;;;;;;;;;;;;;;;15.99;46.56;99802.63;5051551;28;19939;-75
2021/10/25 11:29:28;;;;;;;;;;;;;;;15.92;46.94;99799.53;5062381;28;20022;-74
2021/10/25 11:31:54;;;;;;;;;;;;;;;15.88;47.16;99798.06;5044524;28;19924;-74
2021/10/25 11:34:24;;;;;;;;;;;;;;;15.87;47.30;99791.91;5063102;28;19942;-73
2021/10/25 11:36:53;;;;;;;;;;;;;;;15.87;47.65;99791.03;5035905;28;19927;-74
2021/10/25 11:39:48;;;;;;;;;;;;;;;15.86;47.36;99792.84;5043300;28;19924;-76
2021/10/25 11:42:15;;;;;;;;;;;;;;;15.92;47.81;99798.69;5042472;28;20533;-76
2021/10/25 11:44:41;;;;;;;;;;;;;;;15.88;48.05;99792.75;5043582;28;19929;-74
2021/10/25 11:47:25;;;;;;;;;;;;;;;15.87;48.32;99794.56;5043945;28;20364;-74
2021/10/25 11:50:11;;;;;;;;;;;;;;;15.92;48.50;99786.25;5051862;28;19929;-74
2021/10/25 11:52:38;;;;;;;;;;;;;;;15.86;47.70;99790.19;5062482;28;19920;-75
2021/10/25 11:55:04;;;;;;;;;;;;;;;15.89;48.42;99784.66;5063569;28;19999;-75
2021/10/25 11:57:29;;;;;;;;;;;;;;;15.88;48.57;99788.28;5048164;28;20003;-74
2021/10/25 11:59:56;;;;;;;;;;;;;;;15.89;47.95;99782.00;5067138;28;20376;-74
2021/10/25 12:02:22;;;;;;;;;;;;;;;15.89;48.28;99779.34;5066886;28;19921;-74
2021/10/25 12:04:47;;;;;;;;;;;;;;;15.85;48.42;99777.88;5067973;28;19939;-75
2021/10/25 12:07:13;;;;;;;;;;;;;;;15.82;48.36;99786.03;5068418;28;19927;-75
2021/10/25 12:09:38;;;;;;;;;;;;;;;15.77;48.39;99776.72;5049231;28;19921;-74
2021/10/25 12:12:26;;;;;;;;;;;;;;;15.72;48.08;99773.53;5067034;28;20445;-74
2021/10/25 12:14:56;;;;;;;;;;;;;;;15.75;47.90;99782.16;5046310;28;19928;-75
2021/10/25 12:17:25;;;;;;;;;;;;;;;15.73;47.00;99777.91;5019329;28;19917;-74
2021/10/25 12:19:51;;;;;;;;;;;;;;;15.83;47.58;99773.63;5047408;28;20401;-74
2021/10/25 12:22:17;;;;;;;;;;;;;;;15.89;46.79;99778.50;5049563;28;19929;-74
2021/10/25 12:24:44;;;;;;;;;;;;;;;15.81;46.79;99775.53;5032783;28;19925;-73
2021/10/25 12:27:26;;;;;;;;;;;;;;;15.91;46.95;99775.75;5052324;28;19925;-74
2021/10/25 12:29:58;;;;;;;;;;;;;;;16.02;47.18;99770.47;5050188;28;19925;-74
2021/10/25 12:32:23;;;;;;;;;;;;;;;16.09;47.29;99772.59;5019050;28;19971;-73
2021/10/25 12:34:56;;;;;;;;;;;;;;;15.99;47.46;99771.56;5046831;28;20779;-74
2021/10/25 12:37:22;;;;;;;;;;;;;;;15.98;47.95;99769.88;5035594;28;19988;-74
2021/10/25 12:39:48;;;;;;;;;;;;;;;16.03;47.68;99759.75;5028435;28;19920;-74
2021/10/25 12:42:14;;;;;;;;;;;;;;;16.09;47.71;99758.44;5028370;28;19917;-75
2021/10/25 12:44:44;;;;;;;;;;;;;;;16.04;48.04;99765.91;5046831;28;19936;-74
2021/10/25 12:47:14;;;;;;;;;;;;;;;15.99;48.52;99755.59;5029037;28;19952;-74
2021/10/25 12:49:39;;;;;;;;;;;;;;;15.92;48.60;99764.13;5046884;28;19928;-74
2021/10/25 12:52:10;;;;;;;;;;;;;;;15.91;48.90;99750.00;5028866;28;19920;-74
2021/10/25 12:54:36;;;;;;;;;;;;;;;15.95;49.41;99756.81;5028972;28;20054;-74
2021/10/25 12:57:05;;;;;;;;;;;;;;;15.97;49.08;99746.03;5048641;28;19920;-74
2021/10/25 12:59:31;;;;;;;;;;;;;;;15.93;49.10;99748.06;5047264;28;19940;-74
2021/10/25 13:02:00;;;;;;;;;;;;;;;15.90;49.11;99753.63;5050115;28;20358;-75
2021/10/25 13:04:26;;;;;;;;;;;;;;;15.83;49.34;99749.69;5031736;28;21163;-74
2021/10/25 13:06:52;;;;;;;;;;;;;;;15.76;49.73;99745.78;5048006;28;20411;-74
2021/10/25 13:09:17;;;;;;;;;;;;;;;15.72;50.05;99742.47;5026657;28;19920;-75
2021/10/25 13:11:45;;;;;;;;;;;;;;;15.65;50.14;99738.53;5037915;28;20020;-76
2021/10/25 13:14:11;;;;;;;;;;;;;;;15.62;50.18;99734.28;5044721;28;19924;-76
2021/10/25 13:16:44;;;;;;;;;;;;;;;15.74;50.23;99739.72;5049151;28;19921;-74
2021/10/25 13:19:10;;;;;;;;;;;;;;;15.71;49.91;99740.78;5065344;28;19927;-75
2021/10/25 13:21:35;;;;;;;;;;;;;;;15.75;50.33;99730.78;5065010;28;20013;-73
2021/10/25 13:24:00;;;;;;;;;;;;;;;15.74;50.03;99731.75;5065743;28;19946;-73
2021/10/25 13:26:26;;;;;;;;;;;;;;;15.68;50.15;99738.31;5066330;28;19955;-74
2021/10/25 13:28:52;;;;;;;;;;;;;;;15.71;50.36;99738.13;5048470;28;19924;-73
2021/10/25 13:31:17;;;;;;;;;;;;;;;15.76;50.13;99735.16;5067062;28;19927;-74
2021/10/25 13:33:43;;;;;;;;;;;;;;;15.83;50.29;99739.06;5050754;28;19924;-73
2021/10/25 13:36:09;;;;;;;;;;;;;;;15.79;50.21;99735.75;5071239;28;19921;-73
2021/10/25 13:38:34;;;;;;;;;;;;;;;15.77;49.94;99728.84;5050036;28;19969;-75
2021/10/25 13:41:01;;;;;;;;;;;;;;;15.66;51.08;99725.13;5047499;28;19925;-74
2021/10/25 13:43:26;;;;;;;;;;;;;;;15.60;50.86;99730.03;5048270;28;19921;-73
2021/10/25 13:45:52;;;;;;;;;;;;;;;15.51;51.45;99731.53;5066344;28;19920;-75
2021/10/25 13:48:17;;;;;;;;;;;;;;;15.44;51.42;99725.81;5065329;28;19921;-73
2021/10/25 13:50:42;;;;;;;;;;;;;;;15.34;52.13;99724.75;5027018;28;19924;-74
2021/10/25 13:53:09;;;;;;;;;;;;;;;15.28;51.98;99724.31;5053624;28;20385;-75
2021/10/25 13:55:35;;;;;;;;;;;;;;;15.18;52.44;99722.31;5044964;28;20420;-75
2021/10/25 13:58:00;;;;;;;;;;;;;;;15.12;52.16;99720.09;5050082;28;20062;-75
2021/10/25 14:00:25;;;;;;;;;;;;;;;15.06;52.32;99715.19;5037100;28;19997;-74
2021/10/25 14:02:54;;;;;;;;;;;;;;;15.02;53.25;99719.88;5052928;28;19924;-75
2021/10/25 14:05:20;;;;;;;;;;;;;;;15.03;53.74;99721.56;5047027;28;20864;-74
2021/10/25 14:07:46;;;;;;;;;;;;;;;14.99;53.69;99722.75;5046646;28;20015;-73
2021/10/25 14:10:19;;;;;;;;;;;;;;;14.95;54.08;99717.75;5044356;28;19971;-73
2021/10/25 14:12:44;;;;;;;;;;;;;;;14.88;54.17;99717.31;5044484;28;19920;-74
2021/10/25 14:17:42;;;;;;;;;;;;;;;14.81;54.65;99714.22;5064125;28;19920;-74
2021/10/25 14:20:08;;;;;;;;;;;;;;;14.78;54.80;99716.22;5045428;28;20303;-74
2021/10/25 14:22:33;;;;;;;;;;;;;;;14.76;55.52;99718.13;5063592;28;20351;-73
2021/10/25 14:24:58;;;;;;;;;;;;;;;14.74;56.08;99720.91;5045834;28;20295;-75
2021/10/25 14:27:24;;;;;;;;;;;;;;;14.70;56.15;99714.09;5046895;28;19989;-74
2021/10/25 14:29:49;;;;;;;;;;;;;;;14.64;56.75;99717.16;5044991;28;20027;-75